createdAt,value
2023-02-02T00:00:36.587Z,1013.54
2023-02-02T00:01:36.596Z,1013.50
2023-02-02T00:02:36.621Z,1013.54
2023-02-02T00:03:36.606Z,1013.58
2023-02-02T00:04:36.558Z,1013.53
2023-02-02T00:05:36.552Z,1013.59
2023-02-02T00:06:36.543Z,1013.60
2023-02-02T00:07:36.541Z,1013.54
2023-02-02T00:08:36.530Z,1013.54
2023-02-02T00:09:36.511Z,1013.58
2023-02-02T00:10:36.503Z,1013.56
2023-02-02T00:11:36.516Z,1013.50
2023-02-02T00:12:36.485Z,1013.55
2023-02-02T00:13:36.473Z,1013.57
2023-02-02T00:14:36.477Z,1013.62
2023-02-02T00:15:36.460Z,1013.60
2023-02-02T00:16:36.572Z,1013.69
2023-02-02T00:17:36.448Z,1013.55
2023-02-02T00:18:36.433Z,1013.61
2023-02-02T00:19:36.425Z,1013.59
2023-02-02T00:20:36.423Z,1013.62
2023-02-02T00:21:36.403Z,1013.59
2023-02-02T00:22:36.396Z,1013.57
2023-02-02T00:23:36.397Z,1013.55
2023-02-02T00:24:36.384Z,1013.57
2023-02-02T00:25:36.372Z,1013.56
2023-02-02T00:26:36.446Z,1013.52
2023-02-02T00:27:36.353Z,1013.61
2023-02-02T00:28:36.354Z,1013.52
2023-02-02T00:29:36.343Z,1013.61
2023-02-02T00:30:36.382Z,1013.60
2023-02-02T00:31:36.392Z,1013.64
2023-02-02T00:32:36.321Z,1013.63
2023-02-02T00:33:36.320Z,1013.65
2023-02-02T00:34:36.298Z,1013.65
2023-02-02T00:35:36.289Z,1013.64
2023-02-02T00:36:36.278Z,1013.63
2023-02-02T00:37:36.272Z,1013.56
2023-02-02T00:38:36.258Z,1013.60
2023-02-02T00:39:36.270Z,1013.64
2023-02-02T00:40:36.240Z,1013.65
2023-02-02T00:41:36.233Z,1013.58
2023-02-02T00:42:36.231Z,1013.62
2023-02-02T00:43:36.225Z,1013.64
2023-02-02T00:44:36.209Z,1013.61
2023-02-02T00:45:36.212Z,1013.62
2023-02-02T00:46:36.219Z,1013.57
2023-02-02T00:47:36.183Z,1013.61
2023-02-02T00:48:36.189Z,1013.68
2023-02-02T00:49:36.198Z,1013.59
2023-02-02T00:50:36.160Z,1013.60
2023-02-02T00:51:36.179Z,1013.60
2023-02-02T00:52:36.154Z,1013.55
2023-02-02T00:53:36.163Z,1013.54
2023-02-02T00:54:36.153Z,1013.58
2023-02-02T00:55:36.116Z,1013.61
2023-02-02T00:56:36.126Z,1013.53
2023-02-02T00:57:36.111Z,1013.51
2023-02-02T00:58:36.116Z,1013.50
2023-02-02T00:59:36.084Z,1013.52
2023-02-02T01:00:36.091Z,1013.58
2023-02-02T01:01:36.076Z,1013.58
2023-02-02T01:02:36.064Z,1013.57
2023-02-02T01:03:36.071Z,1013.53
2023-02-02T01:04:36.051Z,1013.64
2023-02-02T01:05:36.059Z,1013.52
2023-02-02T01:06:36.031Z,1013.54
2023-02-02T01:07:36.040Z,1013.50
2023-02-02T01:08:36.006Z,1013.54
2023-02-02T01:09:36.001Z,1013.54
2023-02-02T01:10:36.024Z,1013.50
2023-02-02T01:11:36.002Z,1013.50
2023-02-02T01:12:35.989Z,1013.48
2023-02-02T01:13:35.957Z,1013.48
2023-02-02T01:14:35.947Z,1013.49
2023-02-02T01:15:35.937Z,1013.46
2023-02-02T01:16:36.112Z,1013.43
2023-02-02T01:17:35.930Z,1013.42
2023-02-02T01:18:35.912Z,1013.40
2023-02-02T01:19:35.938Z,1013.44
2023-02-02T01:20:35.903Z,1013.38
2023-02-02T01:21:35.897Z,1013.42
2023-02-02T01:22:35.893Z,1013.46
2023-02-02T01:23:35.877Z,1013.44
2023-02-02T01:24:35.865Z,1013.45
2023-02-02T01:25:35.864Z,1013.46
2023-02-02T01:26:35.886Z,1013.53
2023-02-02T01:27:35.841Z,1013.48
2023-02-02T01:28:35.826Z,1013.53
2023-02-02T01:29:35.814Z,1013.48
2023-02-02T01:30:35.831Z,1013.53
2023-02-02T01:31:35.859Z,1013.53
2023-02-02T01:32:35.806Z,1013.56
2023-02-02T01:33:35.794Z,1013.56
2023-02-02T01:34:35.780Z,1013.54
2023-02-02T01:35:35.778Z,1013.62
2023-02-02T01:36:35.774Z,1013.61
2023-02-02T01:37:35.757Z,1013.68
2023-02-02T01:38:35.758Z,1013.66
2023-02-02T01:39:35.735Z,1013.66
2023-02-02T01:40:35.754Z,1013.61
2023-02-02T01:41:35.722Z,1013.71
2023-02-02T01:42:35.723Z,1013.70
2023-02-02T01:43:35.703Z,1013.66
2023-02-02T01:44:35.696Z,1013.63
2023-02-02T01:45:35.738Z,1013.67
2023-02-02T01:46:35.695Z,1013.73
2023-02-02T01:47:35.665Z,1013.72
2023-02-02T01:48:35.654Z,1013.77
2023-02-02T01:49:35.670Z,1013.69
2023-02-02T01:50:35.638Z,1013.74
2023-02-02T01:51:35.641Z,1013.74
2023-02-02T01:52:35.645Z,1013.75
2023-02-02T01:53:35.615Z,1013.78
2023-02-02T01:54:35.606Z,1013.78
2023-02-02T01:55:35.600Z,1013.80
2023-02-02T01:56:35.592Z,1013.77
2023-02-02T01:57:35.578Z,1013.74
2023-02-02T01:58:35.571Z,1013.77
2023-02-02T01:59:35.567Z,1013.75
2023-02-02T02:00:35.561Z,1013.68
2023-02-02T02:01:35.612Z,1013.80
2023-02-02T02:02:35.631Z,1013.76
2023-02-02T02:03:35.534Z,1013.73
2023-02-02T02:04:35.528Z,1013.78
2023-02-02T02:05:35.514Z,1013.80
2023-02-02T02:06:35.498Z,1013.82
2023-02-02T02:07:35.506Z,1013.73
2023-02-02T02:08:35.489Z,1013.84
2023-02-02T02:09:35.482Z,1013.84
2023-02-02T02:10:35.468Z,1013.83
2023-02-02T02:11:35.463Z,1013.91
2023-02-02T02:12:35.453Z,1013.86
2023-02-02T02:13:35.447Z,1013.93
2023-02-02T02:14:35.441Z,1013.86
2023-02-02T02:15:35.428Z,1013.91
2023-02-02T02:16:35.427Z,1013.93
2023-02-02T02:17:35.419Z,1013.87
2023-02-02T02:18:35.404Z,1013.86
2023-02-02T02:19:35.393Z,1013.81
2023-02-02T02:20:35.387Z,1013.90
2023-02-02T02:21:35.386Z,1013.82
2023-02-02T02:22:35.373Z,1013.77
2023-02-02T02:23:35.356Z,1013.87
2023-02-02T02:24:35.344Z,1013.79
2023-02-02T02:25:35.337Z,1013.78
2023-02-02T02:26:35.381Z,1013.77
2023-02-02T02:27:35.333Z,1013.83
2023-02-02T02:28:35.317Z,1013.76
2023-02-02T02:29:35.309Z,1013.81
2023-02-02T02:30:35.389Z,1013.74
2023-02-02T02:31:35.428Z,1013.76
2023-02-02T02:32:35.289Z,1013.81
2023-02-02T02:33:35.271Z,1013.83
2023-02-02T02:34:35.264Z,1013.82
2023-02-02T02:35:35.252Z,1013.83
2023-02-02T02:36:35.246Z,1013.87
2023-02-02T02:37:35.235Z,1013.83
2023-02-02T02:38:35.239Z,1013.81
2023-02-02T02:39:35.215Z,1013.82
2023-02-02T02:40:35.215Z,1013.77
2023-02-02T02:41:35.200Z,1013.74
2023-02-02T02:42:35.190Z,1013.76
2023-02-02T02:43:35.187Z,1013.72
2023-02-02T02:44:35.177Z,1013.75
2023-02-02T02:45:35.167Z,1013.72
2023-02-02T02:46:35.156Z,1013.75
2023-02-02T02:47:35.154Z,1013.68
2023-02-02T02:48:35.141Z,1013.70
2023-02-02T02:49:35.143Z,1013.73
2023-02-02T02:50:35.129Z,1013.74
2023-02-02T02:51:35.123Z,1013.69
2023-02-02T02:52:35.104Z,1013.70
2023-02-02T02:53:35.095Z,1013.68
2023-02-02T02:54:35.092Z,1013.72
2023-02-02T02:55:35.083Z,1013.71
2023-02-02T02:56:35.077Z,1013.68
2023-02-02T02:57:35.061Z,1013.67
2023-02-02T02:58:35.057Z,1013.70
2023-02-02T02:59:35.047Z,1013.71
2023-02-02T03:00:35.037Z,1013.65
2023-02-02T03:01:35.061Z,1013.67
2023-02-02T03:02:35.062Z,1013.68
2023-02-02T03:03:35.011Z,1013.71
2023-02-02T03:04:35.001Z,1013.76
2023-02-02T03:05:35.014Z,1013.77
2023-02-02T03:06:34.981Z,1013.74
2023-02-02T03:07:34.976Z,1013.69
2023-02-02T03:08:34.973Z,1013.73
2023-02-02T03:09:34.973Z,1013.76
2023-02-02T03:10:34.942Z,1013.74
2023-02-02T03:11:34.947Z,1013.74
2023-02-02T03:12:34.932Z,1013.79
2023-02-02T03:13:34.920Z,1013.66
2023-02-02T03:14:34.929Z,1013.70
2023-02-02T03:15:34.958Z,1013.75
2023-02-02T03:16:34.908Z,1013.77
2023-02-02T03:17:34.883Z,1013.69
2023-02-02T03:18:34.889Z,1013.77
2023-02-02T03:19:34.870Z,1013.71
2023-02-02T03:20:34.853Z,1013.76
2023-02-02T03:21:34.859Z,1013.73
2023-02-02T03:22:34.849Z,1013.71
2023-02-02T03:23:34.838Z,1013.73
2023-02-02T03:24:34.833Z,1013.77
2023-02-02T03:25:34.817Z,1013.71
2023-02-02T03:26:34.828Z,1013.76
2023-02-02T03:27:34.805Z,1013.76
2023-02-02T03:28:34.792Z,1013.73
2023-02-02T03:29:34.829Z,1013.73
2023-02-02T03:30:34.844Z,1013.67
2023-02-02T03:31:34.804Z,1013.72
2023-02-02T03:32:34.764Z,1013.65
2023-02-02T03:33:34.748Z,1013.70
2023-02-02T03:34:34.743Z,1013.74
2023-02-02T03:35:34.741Z,1013.67
2023-02-02T03:36:34.726Z,1013.64
2023-02-02T03:37:34.718Z,1013.72
2023-02-02T03:38:34.704Z,1013.77
2023-02-02T03:39:34.703Z,1013.78
2023-02-02T03:40:34.697Z,1013.75
2023-02-02T03:41:34.684Z,1013.76
2023-02-02T03:42:34.672Z,1013.77
2023-02-02T03:43:34.664Z,1013.78
2023-02-02T03:44:34.654Z,1013.82
2023-02-02T03:45:34.650Z,1013.83
2023-02-02T03:46:34.695Z,1013.84
2023-02-02T03:47:34.643Z,1013.81
2023-02-02T03:48:34.617Z,1013.80
2023-02-02T03:49:34.615Z,1013.83
2023-02-02T03:50:34.606Z,1013.86
2023-02-02T03:51:34.602Z,1013.82
2023-02-02T03:52:34.586Z,1013.86
2023-02-02T03:53:34.586Z,1013.84
2023-02-02T03:54:34.571Z,1013.83
2023-02-02T03:55:34.557Z,1013.87
2023-02-02T03:56:34.567Z,1013.85
2023-02-02T03:57:34.544Z,1013.82
2023-02-02T03:58:34.532Z,1013.91
2023-02-02T03:59:34.527Z,1013.93
2023-02-02T04:00:34.532Z,1013.94
2023-02-02T04:01:34.538Z,1013.90
2023-02-02T04:02:34.560Z,1013.91
2023-02-02T04:03:34.491Z,1013.94
2023-02-02T04:04:34.483Z,1013.90
2023-02-02T04:05:34.472Z,1014.01
2023-02-02T04:06:34.467Z,1013.99
2023-02-02T04:07:34.462Z,1014.00
2023-02-02T04:08:34.453Z,1014.06
2023-02-02T04:09:34.437Z,1013.95
2023-02-02T04:10:34.432Z,1013.98
2023-02-02T04:11:34.429Z,1014.00
2023-02-02T04:12:34.413Z,1014.00
2023-02-02T04:13:34.400Z,1014.07
2023-02-02T04:14:34.398Z,1014.03
2023-02-02T04:15:34.389Z,1014.05
2023-02-02T04:16:34.419Z,1014.01
2023-02-02T04:17:34.371Z,1014.01
2023-02-02T04:18:34.365Z,1014.05
2023-02-02T04:19:34.360Z,1014.03
2023-02-02T04:20:34.360Z,1014.02
2023-02-02T04:21:34.333Z,1014.03
2023-02-02T04:22:34.326Z,1014.01
2023-02-02T04:23:34.317Z,1013.99
2023-02-02T04:24:35.600Z,1014.01
2023-02-02T04:25:34.307Z,1014.00
2023-02-02T04:26:34.330Z,1014.03
2023-02-02T04:27:34.402Z,1014.03
2023-02-02T04:28:34.293Z,1014.06
2023-02-02T04:29:34.268Z,1014.06
2023-02-02T04:30:34.312Z,1014.11
2023-02-02T04:31:34.329Z,1014.09
2023-02-02T04:32:34.246Z,1014.02
2023-02-02T04:33:34.240Z,1014.11
2023-02-02T04:34:34.237Z,1014.12
2023-02-02T04:35:34.241Z,1014.03
2023-02-02T04:36:34.207Z,1014.13
2023-02-02T04:37:34.197Z,1014.12
2023-02-02T04:38:34.187Z,1014.12
2023-02-02T04:39:34.181Z,1014.07
2023-02-02T04:40:34.190Z,1014.14
2023-02-02T04:41:34.163Z,1014.10
2023-02-02T04:42:34.161Z,1014.10
2023-02-02T04:43:34.147Z,1014.15
2023-02-02T04:44:34.139Z,1014.15
2023-02-02T04:45:34.168Z,1014.12
2023-02-02T04:46:34.119Z,1014.15
2023-02-02T04:47:34.108Z,1014.12
2023-02-02T04:48:34.105Z,1014.22
2023-02-02T04:49:34.096Z,1014.19
2023-02-02T04:50:34.096Z,1014.17
2023-02-02T04:51:34.082Z,1014.17
2023-02-02T04:52:34.062Z,1014.26
2023-02-02T04:53:34.068Z,1014.23
2023-02-02T04:54:34.058Z,1014.28
2023-02-02T04:55:34.077Z,1014.25
2023-02-02T04:56:34.028Z,1014.22
2023-02-02T04:57:34.020Z,1014.26
2023-02-02T04:58:34.027Z,1014.23
2023-02-02T04:59:34.000Z,1014.33
2023-02-02T05:00:34.018Z,1014.30
2023-02-02T05:01:33.994Z,1014.26
2023-02-02T05:02:33.981Z,1014.30
2023-02-02T05:03:33.979Z,1014.24
2023-02-02T05:04:33.999Z,1014.32
2023-02-02T05:05:33.967Z,1014.35
2023-02-02T05:06:33.943Z,1014.27
2023-02-02T05:07:33.943Z,1014.30
2023-02-02T05:08:33.928Z,1014.25
2023-02-02T05:09:33.915Z,1014.21
2023-02-02T05:10:33.911Z,1014.25
2023-02-02T05:11:33.927Z,1014.31
2023-02-02T05:12:33.898Z,1014.24
2023-02-02T05:13:33.883Z,1014.26
2023-02-02T05:14:33.878Z,1014.29
2023-02-02T05:15:33.867Z,1014.33
2023-02-02T05:16:33.908Z,1014.30
2023-02-02T05:17:33.857Z,1014.34
2023-02-02T05:18:33.843Z,1014.33
2023-02-02T05:19:33.867Z,1014.32
2023-02-02T05:20:33.828Z,1014.35
2023-02-02T05:21:33.820Z,1014.31
2023-02-02T05:22:33.811Z,1014.35
2023-02-02T05:23:33.805Z,1014.34
2023-02-02T05:24:33.789Z,1014.38
2023-02-02T05:25:33.802Z,1014.35
2023-02-02T05:26:33.803Z,1014.29
2023-02-02T05:27:33.773Z,1014.33
2023-02-02T05:28:33.757Z,1014.37
2023-02-02T05:29:33.746Z,1014.36
2023-02-02T05:30:33.913Z,1014.37
2023-02-02T05:31:33.752Z,1014.37
2023-02-02T05:32:33.723Z,1014.40
2023-02-02T05:33:33.717Z,1014.43
2023-02-02T05:34:33.705Z,1014.44
2023-02-02T05:35:33.698Z,1014.45
2023-02-02T05:36:33.716Z,1014.44
2023-02-02T05:37:33.736Z,1014.41
2023-02-02T05:38:33.676Z,1014.47
2023-02-02T05:39:33.672Z,1014.49
2023-02-02T05:40:33.652Z,1014.51
2023-02-02T05:41:33.653Z,1014.43
2023-02-02T05:42:33.633Z,1014.46
2023-02-02T05:43:33.626Z,1014.46
2023-02-02T05:44:33.618Z,1014.41
2023-02-02T05:45:33.720Z,1014.52
2023-02-02T05:46:33.600Z,1014.47
2023-02-02T05:47:33.592Z,1014.44
2023-02-02T05:48:33.587Z,1014.45
2023-02-02T05:49:33.578Z,1014.46
2023-02-02T05:50:33.579Z,1014.48
2023-02-02T05:51:33.557Z,1014.46
2023-02-02T05:52:33.551Z,1014.41
2023-02-02T05:53:33.543Z,1014.42
2023-02-02T05:54:33.543Z,1014.44
2023-02-02T05:55:33.530Z,1014.42
2023-02-02T05:56:33.512Z,1014.38
2023-02-02T05:57:33.511Z,1014.35
2023-02-02T05:58:33.497Z,1014.37
2023-02-02T05:59:33.490Z,1014.34
2023-02-02T06:00:33.489Z,1014.35
2023-02-02T06:01:33.470Z,1014.32
2023-02-02T06:02:33.492Z,1014.34
2023-02-02T06:03:33.558Z,1014.36
2023-02-02T06:04:33.440Z,1014.34
2023-02-02T06:05:33.434Z,1014.35
2023-02-02T06:06:33.431Z,1014.37
2023-02-02T06:07:33.427Z,1014.39
2023-02-02T06:08:33.414Z,1014.39
2023-02-02T06:09:33.408Z,1014.35
2023-02-02T06:10:33.397Z,1014.34
2023-02-02T06:11:33.381Z,1014.36
2023-02-02T06:12:33.375Z,1014.39
2023-02-02T06:13:33.370Z,1014.43
2023-02-02T06:14:33.377Z,1014.41
2023-02-02T06:15:33.410Z,1014.41
2023-02-02T06:16:33.339Z,1014.39
2023-02-02T06:17:33.334Z,1014.37
2023-02-02T06:18:33.331Z,1014.34
2023-02-02T06:19:33.315Z,1014.34
2023-02-02T06:20:33.310Z,1014.29
2023-02-02T06:21:33.300Z,1014.31
2023-02-02T06:22:33.289Z,1014.38
2023-02-02T06:23:33.292Z,1014.37
2023-02-02T06:24:33.274Z,1014.41
2023-02-02T06:25:33.262Z,1014.38
2023-02-02T06:26:33.409Z,1014.41
2023-02-02T06:27:33.247Z,1014.48
2023-02-02T06:28:33.242Z,1014.48
2023-02-02T06:29:33.233Z,1014.54
2023-02-02T06:30:33.220Z,1014.57
2023-02-02T06:31:33.290Z,1014.52
2023-02-02T06:32:33.195Z,1014.53
2023-02-02T06:33:33.191Z,1014.59
2023-02-02T06:34:33.196Z,1014.53
2023-02-02T06:35:33.190Z,1014.60
2023-02-02T06:36:33.159Z,1014.64
2023-02-02T06:37:33.157Z,1014.62
2023-02-02T06:38:33.152Z,1014.60
2023-02-02T06:39:33.140Z,1014.65
2023-02-02T06:40:33.149Z,1014.69
2023-02-02T06:41:33.132Z,1014.69
2023-02-02T06:42:33.117Z,1014.70
2023-02-02T06:43:33.124Z,1014.70
2023-02-02T06:44:33.106Z,1014.70
2023-02-02T06:45:33.092Z,1014.67
2023-02-02T06:46:33.179Z,1014.78
2023-02-02T06:47:33.079Z,1014.79
2023-02-02T06:48:33.058Z,1014.75
2023-02-02T06:49:33.052Z,1014.79
2023-02-02T06:50:33.041Z,1014.80
2023-02-02T06:51:33.035Z,1014.76
2023-02-02T06:52:33.037Z,1014.88
2023-02-02T06:53:33.058Z,1014.83
2023-02-02T06:54:33.011Z,1014.90
2023-02-02T06:55:33.004Z,1014.80
2023-02-02T06:56:33.002Z,1014.81
2023-02-02T06:57:32.989Z,1014.88
2023-02-02T06:58:32.981Z,1014.87
2023-02-02T06:59:32.970Z,1014.85
2023-02-02T07:00:32.958Z,1014.84
2023-02-02T07:01:32.979Z,1014.73
2023-02-02T07:02:32.996Z,1014.86
2023-02-02T07:03:32.953Z,1014.85
2023-02-02T07:04:32.918Z,1014.87
2023-02-02T07:05:32.924Z,1014.85
2023-02-02T07:06:32.910Z,1014.81
2023-02-02T07:07:32.892Z,1014.77
2023-02-02T07:08:32.892Z,1014.80
2023-02-02T07:09:32.885Z,1014.78
2023-02-02T07:11:10.991Z,1014.76
2023-02-02T07:11:34.698Z,1014.74
2023-02-02T07:12:32.851Z,1014.81
2023-02-02T07:13:32.853Z,1014.85
2023-02-02T07:14:32.837Z,1014.83
2023-02-02T07:15:32.828Z,1014.83
2023-02-02T07:16:32.848Z,1014.82
2023-02-02T07:17:32.812Z,1014.89
2023-02-02T07:18:32.803Z,1014.87
2023-02-02T07:19:32.799Z,1014.89
2023-02-02T07:20:32.778Z,1014.91
2023-02-02T07:21:32.775Z,1014.84
2023-02-02T07:22:32.773Z,1014.87
2023-02-02T07:23:32.767Z,1014.84
2023-02-02T07:24:32.749Z,1014.87
2023-02-02T07:25:32.749Z,1014.88
2023-02-02T07:26:32.843Z,1014.90
2023-02-02T07:27:32.733Z,1014.90
2023-02-02T07:28:32.715Z,1014.85
2023-02-02T07:29:32.706Z,1014.91
2023-02-02T07:30:32.732Z,1014.94
2023-02-02T07:31:35.897Z,1014.91
2023-02-02T07:32:32.679Z,1014.97
2023-02-02T07:33:32.683Z,1014.97
2023-02-02T07:34:32.661Z,1014.99
2023-02-02T07:35:32.653Z,1014.98
2023-02-02T07:36:32.658Z,1014.92
2023-02-02T07:37:32.631Z,1014.91
2023-02-02T07:38:32.634Z,1014.93
2023-02-02T07:39:32.654Z,1014.95
2023-02-02T07:40:32.615Z,1014.93
2023-02-02T07:41:32.603Z,1014.97
2023-02-02T07:42:32.598Z,1015.00
2023-02-02T07:43:32.597Z,1014.99
2023-02-02T07:44:32.580Z,1015.03
2023-02-02T07:45:32.581Z,1014.98
2023-02-02T07:46:32.609Z,1014.98
2023-02-02T07:47:32.559Z,1015.00
2023-02-02T07:48:32.544Z,1015.07
2023-02-02T07:49:32.530Z,1014.96
2023-02-02T07:50:32.536Z,1015.01
2023-02-02T07:51:32.524Z,1014.97
2023-02-02T07:52:32.508Z,1015.00
2023-02-02T07:53:32.495Z,1015.05
2023-02-02T07:54:32.488Z,1015.03
2023-02-02T07:55:32.654Z,1015.03
2023-02-02T07:56:32.472Z,1015.02
2023-02-02T07:57:32.469Z,1015.06
2023-02-02T07:58:32.458Z,1015.06
2023-02-02T07:59:32.670Z,1015.02
2023-02-02T08:00:32.473Z,1015.15
2023-02-02T08:01:32.494Z,1015.17
2023-02-02T08:02:32.443Z,1015.10
2023-02-02T08:03:32.412Z,1015.14
2023-02-02T08:04:32.427Z,1015.10
2023-02-02T08:05:32.415Z,1015.14
2023-02-02T08:06:32.402Z,1015.16
2023-02-02T08:07:32.397Z,1015.06
2023-02-02T08:08:32.386Z,1015.08
2023-02-02T08:09:32.366Z,1015.10
2023-02-02T08:10:32.362Z,1015.16
2023-02-02T08:11:32.357Z,1015.12
2023-02-02T08:12:32.337Z,1015.10
2023-02-02T08:13:32.326Z,1015.16
2023-02-02T08:14:32.334Z,1015.14
2023-02-02T08:15:32.308Z,1015.14
2023-02-02T08:16:32.352Z,1015.15
2023-02-02T08:17:32.298Z,1015.18
2023-02-02T08:18:32.280Z,1015.13
2023-02-02T08:19:32.279Z,1015.16
2023-02-02T08:20:32.266Z,1015.11
2023-02-02T08:21:32.252Z,1015.11
2023-02-02T08:22:32.266Z,1015.16
2023-02-02T08:23:32.241Z,1015.23
2023-02-02T08:24:32.246Z,1015.12
2023-02-02T08:25:32.256Z,1015.14
2023-02-02T08:26:32.353Z,1015.16
2023-02-02T08:27:32.207Z,1015.15
2023-02-02T08:28:32.206Z,1015.15
2023-02-02T08:29:32.196Z,1015.18
2023-02-02T08:30:32.205Z,1015.12
2023-02-02T08:31:32.236Z,1015.19
2023-02-02T08:32:32.169Z,1015.18
2023-02-02T08:33:32.156Z,1015.19
2023-02-02T08:34:32.145Z,1015.23
2023-02-02T08:35:32.138Z,1015.19
2023-02-02T08:36:32.150Z,1015.21
2023-02-02T08:37:32.123Z,1015.28
2023-02-02T08:38:32.117Z,1015.28
2023-02-02T08:39:32.114Z,1015.28
2023-02-02T08:40:32.116Z,1015.26
2023-02-02T08:41:32.115Z,1015.32
2023-02-02T08:42:32.092Z,1015.35
2023-02-02T08:43:32.066Z,1015.28
2023-02-02T08:45:00.314Z,1015.28
2023-02-02T08:46:01.492Z,1015.37
2023-02-02T08:46:32.079Z,1015.37
2023-02-02T08:47:32.039Z,1015.37
2023-02-02T08:48:32.037Z,1015.25
2023-02-02T08:49:32.023Z,1015.34
2023-02-02T08:50:32.021Z,1015.28
2023-02-02T08:51:32.002Z,1015.35
2023-02-02T08:52:31.989Z,1015.35
2023-02-02T08:53:31.982Z,1015.37
2023-02-02T08:54:31.978Z,1015.38
2023-02-02T08:55:31.973Z,1015.41
2023-02-02T08:56:31.959Z,1015.43
2023-02-02T08:57:31.957Z,1015.39
2023-02-02T08:58:31.945Z,1015.35
2023-02-02T08:59:31.939Z,1015.38
2023-02-02T09:00:31.916Z,1015.36
2023-02-02T09:01:31.917Z,1015.41
2023-02-02T09:02:32.011Z,1015.36
2023-02-02T09:03:31.934Z,1015.41
2023-02-02T09:04:31.891Z,1015.45
2023-02-02T09:05:31.888Z,1015.39
2023-02-02T09:06:31.872Z,1015.43
2023-02-02T09:07:31.877Z,1015.44
2023-02-02T09:08:31.900Z,1015.43
2023-02-02T09:09:31.852Z,1015.46
2023-02-02T09:10:31.848Z,1015.47
2023-02-02T09:11:31.848Z,1015.45
2023-02-02T09:12:31.815Z,1015.53
2023-02-02T09:13:31.819Z,1015.49
2023-02-02T09:14:31.817Z,1015.51
2023-02-02T09:15:31.803Z,1015.50
2023-02-02T09:16:31.894Z,1015.50
2023-02-02T09:17:31.780Z,1015.47
2023-02-02T09:18:31.778Z,1015.49
2023-02-02T09:19:31.754Z,1015.49
2023-02-02T09:20:31.764Z,1015.50
2023-02-02T09:21:31.746Z,1015.59
2023-02-02T09:22:31.738Z,1015.55
2023-02-02T09:23:31.725Z,1015.59
2023-02-02T09:24:31.729Z,1015.60
2023-02-02T09:25:31.708Z,1015.61
2023-02-02T09:26:31.744Z,1015.69
2023-02-02T09:27:31.691Z,1015.72
2023-02-02T09:28:31.684Z,1015.67
2023-02-02T09:29:31.697Z,1015.65
2023-02-02T09:30:31.670Z,1015.70
2023-02-02T09:31:31.681Z,1015.73
2023-02-02T09:32:31.648Z,1015.82
2023-02-02T09:33:31.640Z,1015.84
2023-02-02T09:34:31.669Z,1015.88
2023-02-02T09:35:31.629Z,1015.87
2023-02-02T09:36:31.617Z,1015.89
2023-02-02T09:37:31.599Z,1015.91
2023-02-02T09:38:31.616Z,1015.94
2023-02-02T09:39:31.591Z,1015.93
2023-02-02T09:40:31.580Z,1016.01
2023-02-02T09:41:31.571Z,1015.99
2023-02-02T09:42:31.571Z,1016.02
2023-02-02T09:43:31.561Z,1016.02
2023-02-02T09:44:31.566Z,1015.96
2023-02-02T09:45:31.550Z,1015.96
2023-02-02T09:46:31.528Z,1016.03
2023-02-02T09:47:31.517Z,1015.98
2023-02-02T09:48:31.514Z,1016.03
2023-02-02T09:49:31.502Z,1016.07
2023-02-02T09:50:31.507Z,1016.04
2023-02-02T09:51:31.491Z,1016.04
2023-02-02T09:52:31.482Z,1016.05
2023-02-02T09:53:31.477Z,1016.02
2023-02-02T09:54:31.462Z,1016.12
2023-02-02T09:55:31.451Z,1016.05
2023-02-02T09:56:31.442Z,1016.09
2023-02-02T09:57:31.433Z,1016.13
2023-02-02T09:58:31.434Z,1016.08
2023-02-02T09:59:31.421Z,1016.08
2023-02-02T10:00:31.418Z,1016.11
2023-02-02T10:01:31.473Z,1016.17
2023-02-02T10:02:31.386Z,1016.09
2023-02-02T10:03:31.410Z,1016.12
2023-02-02T10:04:31.382Z,1016.15
2023-02-02T10:05:31.368Z,1016.17
2023-02-02T10:06:31.395Z,1016.16
2023-02-02T10:07:31.351Z,1016.23
2023-02-02T10:08:35.132Z,1016.22
2023-02-02T10:09:31.340Z,1016.20
2023-02-02T10:10:31.327Z,1016.21
2023-02-02T10:11:31.319Z,1016.20
2023-02-02T10:12:31.316Z,1016.02
2023-02-02T10:13:31.294Z,1016.29
2023-02-02T10:14:31.320Z,1016.25
2023-02-02T10:15:31.290Z,1016.35
2023-02-02T10:16:31.268Z,1016.26
2023-02-02T10:17:31.282Z,1016.30
2023-02-02T10:18:31.256Z,1016.33
2023-02-02T10:19:31.251Z,1016.30
2023-02-02T10:20:31.254Z,1016.38
2023-02-02T10:21:31.244Z,1016.42
2023-02-02T10:22:31.228Z,1016.41
2023-02-02T10:23:31.226Z,1016.43
2023-02-02T10:24:31.240Z,1016.57
2023-02-02T10:25:31.204Z,1016.47
2023-02-02T10:26:31.255Z,1016.55
2023-02-02T10:27:31.184Z,1016.54
2023-02-02T10:28:31.172Z,1016.57
2023-02-02T10:29:43.273Z,1016.62
2023-02-02T10:30:31.166Z,1016.54
2023-02-02T10:31:31.234Z,1016.61
2023-02-02T10:32:31.150Z,1016.59
2023-02-02T10:33:31.137Z,1016.64
2023-02-02T10:34:31.127Z,1016.68
2023-02-02T10:35:31.125Z,1016.57
2023-02-02T10:36:31.112Z,1016.59
2023-02-02T10:37:31.106Z,1016.66
2023-02-02T10:38:31.274Z,1016.69
2023-02-02T10:39:31.084Z,1016.49
2023-02-02T10:40:31.079Z,1016.53
2023-02-02T10:41:31.091Z,1016.56
2023-02-02T10:42:31.074Z,1016.53
2023-02-02T10:43:31.054Z,1016.64
2023-02-02T10:44:31.048Z,1016.59
2023-02-02T10:45:31.045Z,1016.67
2023-02-02T10:46:31.087Z,1016.61
2023-02-02T10:47:31.061Z,1016.66
2023-02-02T10:48:31.015Z,1016.73
2023-02-02T10:49:31.096Z,1016.71
2023-02-02T10:50:31.031Z,1016.59
2023-02-02T10:51:31.014Z,1016.64
2023-02-02T10:52:30.983Z,1016.65
2023-02-02T10:53:30.974Z,1016.72
2023-02-02T10:54:30.969Z,1016.69
2023-02-02T10:55:30.989Z,1016.58
2023-02-02T10:56:31.000Z,1016.65
2023-02-02T10:57:30.943Z,1016.66
2023-02-02T10:58:30.939Z,1016.71
2023-02-02T10:59:30.925Z,1016.65
2023-02-02T11:00:30.949Z,1016.69
2023-02-02T11:01:30.984Z,1016.73
2023-02-02T11:02:30.949Z,1016.71
2023-02-02T11:03:30.893Z,1016.68
2023-02-02T11:04:30.898Z,1016.65
2023-02-02T11:05:30.881Z,1016.63
2023-02-02T11:06:30.875Z,1016.68
2023-02-02T11:07:30.903Z,1016.61
2023-02-02T11:08:30.857Z,1016.71
2023-02-02T11:09:30.853Z,1016.61
2023-02-02T11:10:30.879Z,1016.69
2023-02-02T11:11:30.829Z,1016.57
2023-02-02T11:12:30.820Z,1016.67
2023-02-02T11:13:30.820Z,1016.61
2023-02-02T11:14:30.820Z,1016.68
2023-02-02T11:15:30.815Z,1016.66
2023-02-02T11:16:42.267Z,1016.63
2023-02-02T11:17:30.782Z,1016.67
2023-02-02T11:18:30.762Z,1016.63
2023-02-02T11:19:30.776Z,1016.70
2023-02-02T11:20:30.754Z,1016.69
2023-02-02T11:21:30.746Z,1016.71
2023-02-02T11:22:30.735Z,1016.66
2023-02-02T11:23:30.778Z,1016.60
2023-02-02T11:24:30.717Z,1016.59
2023-02-02T11:25:30.732Z,1016.72
2023-02-02T11:26:30.721Z,1016.62
2023-02-02T11:27:30.693Z,1016.60
2023-02-02T11:28:30.687Z,1016.65
2023-02-02T11:29:30.677Z,1016.65
2023-02-02T11:30:30.670Z,1016.72
2023-02-02T11:31:30.768Z,1016.71
2023-02-02T11:32:30.677Z,1016.72
2023-02-02T11:33:30.649Z,1016.74
2023-02-02T11:34:30.636Z,1016.67
2023-02-02T11:35:30.630Z,1016.73
2023-02-02T11:36:30.620Z,1016.73
2023-02-02T11:37:30.608Z,1016.64
2023-02-02T11:38:30.633Z,1016.73
2023-02-02T11:39:30.607Z,1016.76
2023-02-02T11:40:30.586Z,1016.69
2023-02-02T11:41:30.579Z,1016.69
2023-02-02T11:42:30.572Z,1016.72
2023-02-02T11:43:30.568Z,1016.67
2023-02-02T11:44:30.564Z,1016.69
2023-02-02T11:45:30.547Z,1016.65
2023-02-02T11:46:30.624Z,1016.73
2023-02-02T11:47:30.536Z,1016.69
2023-02-02T11:48:30.527Z,1016.70
2023-02-02T11:49:30.521Z,1016.71
2023-02-02T11:50:30.506Z,1016.83
2023-02-02T11:51:30.687Z,1016.71
2023-02-02T11:52:32.480Z,1016.68
2023-02-02T11:53:30.500Z,1016.70
2023-02-02T11:54:30.501Z,1016.74
2023-02-02T11:55:30.463Z,1016.70
2023-02-02T11:56:30.459Z,1016.76
2023-02-02T11:57:30.453Z,1016.76
2023-02-02T11:58:30.441Z,1016.75
2023-02-02T11:59:30.443Z,1016.65
2023-02-02T12:00:30.433Z,1016.61
2023-02-02T12:01:30.425Z,1016.67
2023-02-02T12:02:30.419Z,1016.75
2023-02-02T12:03:30.418Z,1016.71
2023-02-02T12:04:32.512Z,1016.63
2023-02-02T12:05:30.389Z,1016.65